sensor_id;sensor_type;location;lat;lon;timestamp;P1;durP1;ratioP1;P2;durP2;ratioP2
10651;SDS011;5374;42.742;23.266;2022-12-07T00:01:40;27.07;;;19.90;;
10651;SDS011;5374;42.742;23.266;2022-12-07T00:04:28;32.63;;;21.97;;
10651;SDS011;5374;42.742;23.266;2022-12-07T00:07:16;53.20;;;30.60;;
10651;SDS011;5374;42.742;23.266;2022-12-07T00:10:05;38.53;;;23.10;;
10651;SDS011;5374;42.742;23.266;2022-12-07T00:12:53;31.83;;;19.37;;
10651;SDS011;5374;42.742;23.266;2022-12-07T00:15:40;40.13;;;23.93;;
10651;SDS011;5374;42.742;23.266;2022-12-07T00:18:27;37.50;;;22.87;;
10651;SDS011;5374;42.742;23.266;2022-12-07T00:21:16;32.13;;;21.17;;
10651;SDS011;5374;42.742;23.266;2022-12-07T00:24:05;31.03;;;20.67;;
10651;SDS011;5374;42.742;23.266;2022-12-07T00:26:54;25.53;;;17.60;;
10651;SDS011;5374;42.742;23.266;2022-12-07T00:29:41;31.03;;;18.10;;
10651;SDS011;5374;42.742;23.266;2022-12-07T00:32:28;33.40;;;21.37;;
10651;SDS011;5374;42.742;23.266;2022-12-07T00:35:16;34.47;;;23.83;;
10651;SDS011;5374;42.742;23.266;2022-12-07T00:38:03;33.07;;;20.80;;
10651;SDS011;5374;42.742;23.266;2022-12-07T00:40:53;31.33;;;20.63;;
10651;SDS011;5374;42.742;23.266;2022-12-07T00:43:44;33.77;;;22.10;;
10651;SDS011;5374;42.742;23.266;2022-12-07T00:46:32;29.00;;;18.03;;
10651;SDS011;5374;42.742;23.266;2022-12-07T00:49:19;32.80;;;19.47;;
10651;SDS011;5374;42.742;23.266;2022-12-07T00:52:07;60.57;;;27.27;;
10651;SDS011;5374;42.742;23.266;2022-12-07T00:54:54;50.10;;;25.13;;
10651;SDS011;5374;42.742;23.266;2022-12-07T00:57:41;41.80;;;22.67;;
10651;SDS011;5374;42.742;23.266;2022-12-07T01:00:30;30.03;;;18.93;;
10651;SDS011;5374;42.742;23.266;2022-12-07T01:03:18;35.53;;;20.97;;
10651;SDS011;5374;42.742;23.266;2022-12-07T01:06:05;34.63;;;19.73;;
10651;SDS011;5374;42.742;23.266;2022-12-07T01:08:52;35.17;;;21.43;;
10651;SDS011;5374;42.742;23.266;2022-12-07T01:11:40;39.97;;;21.87;;
10651;SDS011;5374;42.742;23.266;2022-12-07T01:14:27;39.63;;;23.40;;
10651;SDS011;5374;42.742;23.266;2022-12-07T01:17:15;43.47;;;23.10;;
10651;SDS011;5374;42.742;23.266;2022-12-07T01:20:03;36.80;;;20.17;;
10651;SDS011;5374;42.742;23.266;2022-12-07T01:22:51;33.40;;;20.30;;
10651;SDS011;5374;42.742;23.266;2022-12-07T01:25:38;34.30;;;20.47;;
10651;SDS011;5374;42.742;23.266;2022-12-07T01:28:26;34.97;;;20.03;;
10651;SDS011;5374;42.742;23.266;2022-12-07T01:31:14;33.40;;;21.17;;
10651;SDS011;5374;42.742;23.266;2022-12-07T01:34:04;31.47;;;19.77;;
10651;SDS011;5374;42.742;23.266;2022-12-07T01:36:51;26.57;;;17.20;;
10651;SDS011;5374;42.742;23.266;2022-12-07T01:39:38;27.07;;;17.33;;
10651;SDS011;5374;42.742;23.266;2022-12-07T01:42:26;28.13;;;17.67;;
10651;SDS011;5374;42.742;23.266;2022-12-07T01:48:26;33.23;;;20.70;;
10651;SDS011;5374;42.742;23.266;2022-12-07T01:51:20;30.37;;;19.47;;
10651;SDS011;5374;42.742;23.266;2022-12-07T01:54:08;27.53;;;18.07;;
10651;SDS011;5374;42.742;23.266;2022-12-07T01:56:58;28.17;;;17.67;;
10651;SDS011;5374;42.742;23.266;2022-12-07T01:59:47;28.43;;;17.63;;
10651;SDS011;5374;42.742;23.266;2022-12-07T02:02:38;31.77;;;22.23;;
10651;SDS011;5374;42.742;23.266;2022-12-07T02:05:34;32.83;;;21.87;;
10651;SDS011;5374;42.742;23.266;2022-12-07T02:08:25;39.97;;;28.27;;
10651;SDS011;5374;42.742;23.266;2022-12-07T02:11:12;56.90;;;46.07;;
10651;SDS011;5374;42.742;23.266;2022-12-07T02:14:00;110.53;;;92.57;;
10651;SDS011;5374;42.742;23.266;2022-12-07T02:16:50;44.40;;;29.33;;
10651;SDS011;5374;42.742;23.266;2022-12-07T02:23:21;37.60;;;25.63;;
10651;SDS011;5374;42.742;23.266;2022-12-07T02:26:29;32.40;;;19.47;;
10651;SDS011;5374;42.742;23.266;2022-12-07T02:29:37;33.23;;;18.30;;
10651;SDS011;5374;42.742;23.266;2022-12-07T02:32:31;34.33;;;18.73;;
10651;SDS011;5374;42.742;23.266;2022-12-07T02:35:28;34.33;;;18.67;;
10651;SDS011;5374;42.742;23.266;2022-12-07T02:38:22;25.70;;;16.80;;
10651;SDS011;5374;42.742;23.266;2022-12-07T02:41:13;24.13;;;16.63;;
10651;SDS011;5374;42.742;23.266;2022-12-07T02:44:05;26.33;;;18.27;;
10651;SDS011;5374;42.742;23.266;2022-12-07T02:47:00;25.33;;;17.87;;
10651;SDS011;5374;42.742;23.266;2022-12-07T02:49:51;28.40;;;19.37;;
10651;SDS011;5374;42.742;23.266;2022-12-07T02:52:39;30.10;;;19.60;;
10651;SDS011;5374;42.742;23.266;2022-12-07T02:55:27;28.43;;;18.97;;
10651;SDS011;5374;42.742;23.266;2022-12-07T02:58:21;28.43;;;20.00;;
10651;SDS011;5374;42.742;23.266;2022-12-07T03:01:19;32.47;;;19.67;;
10651;SDS011;5374;42.742;23.266;2022-12-07T03:04:20;29.47;;;20.70;;
10651;SDS011;5374;42.742;23.266;2022-12-07T03:07:18;29.67;;;19.40;;
10651;SDS011;5374;42.742;23.266;2022-12-07T03:10:14;34.50;;;22.43;;
10651;SDS011;5374;42.742;23.266;2022-12-07T03:13:07;55.23;;;30.80;;
10651;SDS011;5374;42.742;23.266;2022-12-07T03:16:02;62.20;;;33.23;;
10651;SDS011;5374;42.742;23.266;2022-12-07T03:18:55;85.43;;;41.07;;
10651;SDS011;5374;42.742;23.266;2022-12-07T03:21:48;78.40;;;37.37;;
10651;SDS011;5374;42.742;23.266;2022-12-07T03:24:41;73.27;;;37.07;;
10651;SDS011;5374;42.742;23.266;2022-12-07T03:27:34;66.30;;;32.90;;
10651;SDS011;5374;42.742;23.266;2022-12-07T03:30:27;66.77;;;32.53;;
10651;SDS011;5374;42.742;23.266;2022-12-07T03:33:17;60.23;;;30.27;;
10651;SDS011;5374;42.742;23.266;2022-12-07T03:36:11;42.27;;;26.63;;
10651;SDS011;5374;42.742;23.266;2022-12-07T03:39:07;165.47;;;122.37;;
10651;SDS011;5374;42.742;23.266;2022-12-07T03:42:04;138.27;;;92.57;;
10651;SDS011;5374;42.742;23.266;2022-12-07T03:44:54;54.77;;;31.63;;
10651;SDS011;5374;42.742;23.266;2022-12-07T03:47:43;79.00;;;54.70;;
10651;SDS011;5374;42.742;23.266;2022-12-07T03:50:36;92.20;;;65.00;;
10651;SDS011;5374;42.742;23.266;2022-12-07T03:53:29;57.87;;;39.73;;
10651;SDS011;5374;42.742;23.266;2022-12-07T03:56:22;41.23;;;24.43;;
10651;SDS011;5374;42.742;23.266;2022-12-07T03:59:10;40.67;;;25.47;;
10651;SDS011;5374;42.742;23.266;2022-12-07T04:02:01;34.80;;;23.87;;
10651;SDS011;5374;42.742;23.266;2022-12-07T04:04:52;41.27;;;26.33;;
10651;SDS011;5374;42.742;23.266;2022-12-07T04:07:39;51.90;;;27.93;;
10651;SDS011;5374;42.742;23.266;2022-12-07T04:10:27;64.27;;;33.37;;
10651;SDS011;5374;42.742;23.266;2022-12-07T04:13:16;51.83;;;29.57;;
10651;SDS011;5374;42.742;23.266;2022-12-07T04:16:03;65.87;;;33.27;;
10651;SDS011;5374;42.742;23.266;2022-12-07T04:18:50;75.33;;;36.00;;
10651;SDS011;5374;42.742;23.266;2022-12-07T04:21:38;91.10;;;41.07;;
10651;SDS011;5374;42.742;23.266;2022-12-07T04:24:25;95.67;;;38.57;;
10651;SDS011;5374;42.742;23.266;2022-12-07T04:27:13;78.70;;;35.73;;
10651;SDS011;5374;42.742;23.266;2022-12-07T04:30:02;64.13;;;29.63;;
10651;SDS011;5374;42.742;23.266;2022-12-07T04:32:50;53.23;;;27.17;;
10651;SDS011;5374;42.742;23.266;2022-12-07T04:35:37;47.10;;;25.50;;
10651;SDS011;5374;42.742;23.266;2022-12-07T04:38:24;48.20;;;25.97;;
10651;SDS011;5374;42.742;23.266;2022-12-07T04:41:12;68.60;;;32.33;;
10651;SDS011;5374;42.742;23.266;2022-12-07T04:44:00;75.03;;;34.83;;
10651;SDS011;5374;42.742;23.266;2022-12-07T04:46:51;82.20;;;37.13;;
10651;SDS011;5374;42.742;23.266;2022-12-07T04:49:38;79.87;;;35.17;;
10651;SDS011;5374;42.742;23.266;2022-12-07T04:52:26;82.57;;;37.20;;
10651;SDS011;5374;42.742;23.266;2022-12-07T04:55:13;118.33;;;51.03;;
10651;SDS011;5374;42.742;23.266;2022-12-07T04:58:00;126.87;;;52.23;;
10651;SDS011;5374;42.742;23.266;2022-12-07T05:00:49;121.53;;;51.80;;
10651;SDS011;5374;42.742;23.266;2022-12-07T05:03:40;75.43;;;37.53;;
10651;SDS011;5374;42.742;23.266;2022-12-07T05:06:28;45.73;;;25.30;;
10651;SDS011;5374;42.742;23.266;2022-12-07T05:09:15;38.30;;;23.07;;
10651;SDS011;5374;42.742;23.266;2022-12-07T05:12:02;34.13;;;22.47;;
10651;SDS011;5374;42.742;23.266;2022-12-07T05:14:49;34.27;;;23.17;;
10651;SDS011;5374;42.742;23.266;2022-12-07T05:17:37;33.90;;;23.13;;
10651;SDS011;5374;42.742;23.266;2022-12-07T05:20:25;35.33;;;24.23;;
10651;SDS011;5374;42.742;23.266;2022-12-07T05:23:12;38.07;;;24.70;;
10651;SDS011;5374;42.742;23.266;2022-12-07T05:26:00;35.83;;;24.43;;
10651;SDS011;5374;42.742;23.266;2022-12-07T05:28:49;36.30;;;24.13;;
10651;SDS011;5374;42.742;23.266;2022-12-07T05:31:37;34.27;;;23.27;;
10651;SDS011;5374;42.742;23.266;2022-12-07T05:34:25;34.77;;;22.07;;
10651;SDS011;5374;42.742;23.266;2022-12-07T05:37:13;32.67;;;21.27;;
10651;SDS011;5374;42.742;23.266;2022-12-07T05:40:00;39.27;;;25.90;;
10651;SDS011;5374;42.742;23.266;2022-12-07T05:42:48;42.60;;;26.23;;
10651;SDS011;5374;42.742;23.266;2022-12-07T05:45:35;37.13;;;26.63;;
10651;SDS011;5374;42.742;23.266;2022-12-07T05:48:23;43.20;;;29.57;;
10651;SDS011;5374;42.742;23.266;2022-12-07T05:51:10;43.60;;;29.60;;
10651;SDS011;5374;42.742;23.266;2022-12-07T05:53:58;40.20;;;27.50;;
10651;SDS011;5374;42.742;23.266;2022-12-07T05:56:45;50.60;;;33.03;;
10651;SDS011;5374;42.742;23.266;2022-12-07T05:59:32;50.90;;;33.30;;
10651;SDS011;5374;42.742;23.266;2022-12-07T06:02:18;48.93;;;32.57;;
10651;SDS011;5374;42.742;23.266;2022-12-07T06:05:06;50.00;;;32.63;;
10651;SDS011;5374;42.742;23.266;2022-12-07T06:07:53;46.03;;;30.60;;
10651;SDS011;5374;42.742;23.266;2022-12-07T06:10:42;40.50;;;29.53;;
10651;SDS011;5374;42.742;23.266;2022-12-07T06:13:29;39.80;;;27.63;;
10651;SDS011;5374;42.742;23.266;2022-12-07T06:16:15;44.40;;;29.83;;
10651;SDS011;5374;42.742;23.266;2022-12-07T06:19:03;44.17;;;28.50;;
10651;SDS011;5374;42.742;23.266;2022-12-07T06:21:50;40.57;;;28.13;;
10651;SDS011;5374;42.742;23.266;2022-12-07T06:24:37;49.73;;;32.20;;
10651;SDS011;5374;42.742;23.266;2022-12-07T06:27:27;57.73;;;34.60;;
10651;SDS011;5374;42.742;23.266;2022-12-07T06:30:14;59.57;;;35.77;;
10651;SDS011;5374;42.742;23.266;2022-12-07T06:33:02;69.30;;;39.97;;
10651;SDS011;5374;42.742;23.266;2022-12-07T06:35:49;65.67;;;39.60;;
10651;SDS011;5374;42.742;23.266;2022-12-07T06:38:37;56.30;;;36.70;;
10651;SDS011;5374;42.742;23.266;2022-12-07T06:41:24;55.93;;;35.23;;
10651;SDS011;5374;42.742;23.266;2022-12-07T06:44:12;58.67;;;34.33;;
10651;SDS011;5374;42.742;23.266;2022-12-07T06:47:00;60.43;;;37.13;;
10651;SDS011;5374;42.742;23.266;2022-12-07T06:49:47;60.43;;;37.80;;
10651;SDS011;5374;42.742;23.266;2022-12-07T06:52:34;59.37;;;38.13;;
10651;SDS011;5374;42.742;23.266;2022-12-07T06:55:21;63.77;;;39.47;;
10651;SDS011;5374;42.742;23.266;2022-12-07T06:58:09;55.33;;;35.37;;
10651;SDS011;5374;42.742;23.266;2022-12-07T07:00:57;53.83;;;34.93;;
10651;SDS011;5374;42.742;23.266;2022-12-07T07:03:45;51.50;;;33.67;;
10651;SDS011;5374;42.742;23.266;2022-12-07T07:06:33;48.97;;;33.97;;
10651;SDS011;5374;42.742;23.266;2022-12-07T07:09:20;52.77;;;34.43;;
10651;SDS011;5374;42.742;23.266;2022-12-07T07:12:07;49.00;;;32.67;;
10651;SDS011;5374;42.742;23.266;2022-12-07T07:14:54;45.33;;;32.57;;
10651;SDS011;5374;42.742;23.266;2022-12-07T07:17:43;51.10;;;34.17;;
10651;SDS011;5374;42.742;23.266;2022-12-07T07:20:30;53.23;;;36.50;;
10651;SDS011;5374;42.742;23.266;2022-12-07T07:23:17;50.77;;;34.13;;
10651;SDS011;5374;42.742;23.266;2022-12-07T07:26:06;50.27;;;33.57;;
10651;SDS011;5374;42.742;23.266;2022-12-07T07:28:54;50.50;;;31.70;;
10651;SDS011;5374;42.742;23.266;2022-12-07T07:31:41;47.17;;;28.23;;
10651;SDS011;5374;42.742;23.266;2022-12-07T07:34:29;37.50;;;27.13;;
10651;SDS011;5374;42.742;23.266;2022-12-07T07:37:16;44.47;;;28.63;;
10651;SDS011;5374;42.742;23.266;2022-12-07T07:40:04;36.03;;;26.73;;
10651;SDS011;5374;42.742;23.266;2022-12-07T07:42:53;42.43;;;29.93;;
10651;SDS011;5374;42.742;23.266;2022-12-07T07:45:40;42.67;;;31.30;;
10651;SDS011;5374;42.742;23.266;2022-12-07T07:48:28;45.10;;;31.70;;
10651;SDS011;5374;42.742;23.266;2022-12-07T07:51:17;44.33;;;32.13;;
10651;SDS011;5374;42.742;23.266;2022-12-07T07:54:04;39.03;;;28.57;;
10651;SDS011;5374;42.742;23.266;2022-12-07T07:56:51;38.40;;;27.67;;
10651;SDS011;5374;42.742;23.266;2022-12-07T07:59:39;38.13;;;26.87;;
10651;SDS011;5374;42.742;23.266;2022-12-07T08:02:26;41.73;;;27.67;;
10651;SDS011;5374;42.742;23.266;2022-12-07T08:05:15;42.77;;;28.50;;
10651;SDS011;5374;42.742;23.266;2022-12-07T08:08:04;42.97;;;27.93;;
10651;SDS011;5374;42.742;23.266;2022-12-07T08:10:51;41.67;;;28.33;;
10651;SDS011;5374;42.742;23.266;2022-12-07T08:13:38;42.60;;;29.10;;
10651;SDS011;5374;42.742;23.266;2022-12-07T08:16:25;43.70;;;29.33;;
10651;SDS011;5374;42.742;23.266;2022-12-07T08:19:13;44.87;;;31.03;;
10651;SDS011;5374;42.742;23.266;2022-12-07T08:22:00;48.00;;;33.60;;
10651;SDS011;5374;42.742;23.266;2022-12-07T08:24:51;48.13;;;34.23;;
10651;SDS011;5374;42.742;23.266;2022-12-07T08:27:38;42.97;;;27.63;;
10651;SDS011;5374;42.742;23.266;2022-12-07T08:30:25;38.30;;;27.63;;
10651;SDS011;5374;42.742;23.266;2022-12-07T08:33:12;40.90;;;27.80;;
10651;SDS011;5374;42.742;23.266;2022-12-07T08:36:00;40.63;;;27.97;;
10651;SDS011;5374;42.742;23.266;2022-12-07T08:38:48;37.73;;;27.07;;
10651;SDS011;5374;42.742;23.266;2022-12-07T08:41:37;44.37;;;26.47;;
10651;SDS011;5374;42.742;23.266;2022-12-07T08:44:25;38.03;;;27.10;;
10651;SDS011;5374;42.742;23.266;2022-12-07T08:47:12;35.10;;;24.70;;
10651;SDS011;5374;42.742;23.266;2022-12-07T08:49:59;43.63;;;25.93;;
10651;SDS011;5374;42.742;23.266;2022-12-07T08:52:49;35.93;;;25.63;;
10651;SDS011;5374;42.742;23.266;2022-12-07T08:55:39;39.37;;;26.93;;
10651;SDS011;5374;42.742;23.266;2022-12-07T08:58:28;38.17;;;25.27;;
10651;SDS011;5374;42.742;23.266;2022-12-07T09:01:15;48.33;;;30.90;;
10651;SDS011;5374;42.742;23.266;2022-12-07T09:04:02;45.23;;;30.53;;
10651;SDS011;5374;42.742;23.266;2022-12-07T09:06:49;50.63;;;34.90;;
10651;SDS011;5374;42.742;23.266;2022-12-07T09:09:37;41.10;;;28.03;;
10651;SDS011;5374;42.742;23.266;2022-12-07T09:12:24;34.87;;;23.93;;
10651;SDS011;5374;42.742;23.266;2022-12-07T09:15:12;38.07;;;24.17;;
10651;SDS011;5374;42.742;23.266;2022-12-07T09:17:59;34.27;;;24.20;;
10651;SDS011;5374;42.742;23.266;2022-12-07T09:20:47;34.40;;;23.30;;
10651;SDS011;5374;42.742;23.266;2022-12-07T09:23:34;33.40;;;23.63;;
10651;SDS011;5374;42.742;23.266;2022-12-07T09:26:21;34.80;;;23.27;;
10651;SDS011;5374;42.742;23.266;2022-12-07T09:29:09;31.33;;;22.27;;
10651;SDS011;5374;42.742;23.266;2022-12-07T09:31:57;32.37;;;22.73;;
10651;SDS011;5374;42.742;23.266;2022-12-07T09:34:45;32.10;;;22.93;;
10651;SDS011;5374;42.742;23.266;2022-12-07T09:37:32;35.40;;;23.10;;
10651;SDS011;5374;42.742;23.266;2022-12-07T09:40:22;32.40;;;20.17;;
10651;SDS011;5374;42.742;23.266;2022-12-07T09:43:12;30.57;;;21.50;;
10651;SDS011;5374;42.742;23.266;2022-12-07T09:46:01;34.93;;;22.10;;
10651;SDS011;5374;42.742;23.266;2022-12-07T09:48:51;36.80;;;23.33;;
10651;SDS011;5374;42.742;23.266;2022-12-07T09:51:38;35.10;;;21.93;;
10651;SDS011;5374;42.742;23.266;2022-12-07T09:54:25;30.17;;;21.17;;
10651;SDS011;5374;42.742;23.266;2022-12-07T09:57:13;33.70;;;21.60;;
10651;SDS011;5374;42.742;23.266;2022-12-07T10:00:00;39.10;;;22.77;;
10651;SDS011;5374;42.742;23.266;2022-12-07T10:02:52;37.67;;;24.97;;
10651;SDS011;5374;42.742;23.266;2022-12-07T10:05:46;86.53;;;62.23;;
10651;SDS011;5374;42.742;23.266;2022-12-07T10:08:35;93.23;;;63.00;;
10651;SDS011;5374;42.742;23.266;2022-12-07T10:11:23;53.40;;;38.30;;
10651;SDS011;5374;42.742;23.266;2022-12-07T10:14:10;36.93;;;26.90;;
10651;SDS011;5374;42.742;23.266;2022-12-07T10:16:59;38.17;;;26.73;;
10651;SDS011;5374;42.742;23.266;2022-12-07T10:19:47;41.27;;;27.13;;
10651;SDS011;5374;42.742;23.266;2022-12-07T10:22:35;45.67;;;30.30;;
10651;SDS011;5374;42.742;23.266;2022-12-07T10:25:24;44.73;;;30.20;;
10651;SDS011;5374;42.742;23.266;2022-12-07T10:28:15;42.30;;;29.40;;
10651;SDS011;5374;42.742;23.266;2022-12-07T10:31:15;48.07;;;32.90;;
10651;SDS011;5374;42.742;23.266;2022-12-07T10:34:12;49.57;;;35.30;;
10651;SDS011;5374;42.742;23.266;2022-12-07T10:37:17;51.30;;;36.03;;
10651;SDS011;5374;42.742;23.266;2022-12-07T10:40:20;43.43;;;29.87;;
10651;SDS011;5374;42.742;23.266;2022-12-07T10:43:16;54.43;;;37.03;;
10651;SDS011;5374;42.742;23.266;2022-12-07T10:46:14;48.63;;;31.37;;
10651;SDS011;5374;42.742;23.266;2022-12-07T10:53:17;41.97;;;27.30;;
10651;SDS011;5374;42.742;23.266;2022-12-07T10:59:45;44.37;;;28.90;;
10651;SDS011;5374;42.742;23.266;2022-12-07T11:02:52;43.87;;;28.20;;
10651;SDS011;5374;42.742;23.266;2022-12-07T11:05:53;36.90;;;25.90;;
10651;SDS011;5374;42.742;23.266;2022-12-07T11:08:52;44.57;;;25.97;;
10651;SDS011;5374;42.742;23.266;2022-12-07T11:11:48;43.47;;;28.33;;
10651;SDS011;5374;42.742;23.266;2022-12-07T11:14:41;350.23;;;194.07;;
10651;SDS011;5374;42.742;23.266;2022-12-07T11:17:45;100.03;;;59.43;;
10651;SDS011;5374;42.742;23.266;2022-12-07T11:20:43;37.87;;;26.57;;
10651;SDS011;5374;42.742;23.266;2022-12-07T11:23:42;35.73;;;22.30;;
10651;SDS011;5374;42.742;23.266;2022-12-07T11:26:41;29.13;;;19.93;;
10651;SDS011;5374;42.742;23.266;2022-12-07T11:29:44;32.33;;;20.90;;
10651;SDS011;5374;42.742;23.266;2022-12-07T11:32:54;30.10;;;19.27;;
10651;SDS011;5374;42.742;23.266;2022-12-07T11:35:54;34.83;;;20.27;;
10651;SDS011;5374;42.742;23.266;2022-12-07T11:38:50;29.53;;;23.00;;
10651;SDS011;5374;42.742;23.266;2022-12-07T11:41:41;28.53;;;19.17;;
10651;SDS011;5374;42.742;23.266;2022-12-07T11:44:31;30.70;;;18.00;;
10651;SDS011;5374;42.742;23.266;2022-12-07T11:47:26;31.17;;;21.17;;
10651;SDS011;5374;42.742;23.266;2022-12-07T11:50:26;31.57;;;23.10;;
10651;SDS011;5374;42.742;23.266;2022-12-07T11:53:19;32.83;;;20.13;;
10651;SDS011;5374;42.742;23.266;2022-12-07T11:56:13;32.87;;;22.80;;
10651;SDS011;5374;42.742;23.266;2022-12-07T11:59:04;37.33;;;19.90;;
10651;SDS011;5374;42.742;23.266;2022-12-07T12:02:00;46.57;;;30.60;;
10651;SDS011;5374;42.742;23.266;2022-12-07T12:05:01;39.13;;;21.67;;
10651;SDS011;5374;42.742;23.266;2022-12-07T12:07:57;39.23;;;29.67;;
10651;SDS011;5374;42.742;23.266;2022-12-07T12:10:54;37.30;;;26.57;;
10651;SDS011;5374;42.742;23.266;2022-12-07T12:13:56;32.67;;;21.70;;
10651;SDS011;5374;42.742;23.266;2022-12-07T12:17:02;28.17;;;18.50;;
10651;SDS011;5374;42.742;23.266;2022-12-07T12:20:13;32.67;;;20.07;;
10651;SDS011;5374;42.742;23.266;2022-12-07T12:23:09;37.83;;;21.33;;
10651;SDS011;5374;42.742;23.266;2022-12-07T12:26:00;32.60;;;19.33;;
10651;SDS011;5374;42.742;23.266;2022-12-07T12:28:50;32.03;;;18.83;;
10651;SDS011;5374;42.742;23.266;2022-12-07T12:31:42;35.87;;;24.23;;
10651;SDS011;5374;42.742;23.266;2022-12-07T12:34:31;35.53;;;20.17;;
10651;SDS011;5374;42.742;23.266;2022-12-07T12:37:41;30.93;;;18.53;;
10651;SDS011;5374;42.742;23.266;2022-12-07T12:40:41;29.60;;;18.73;;
10651;SDS011;5374;42.742;23.266;2022-12-07T12:43:40;38.93;;;26.83;;
10651;SDS011;5374;42.742;23.266;2022-12-07T12:46:38;24.57;;;14.33;;
10651;SDS011;5374;42.742;23.266;2022-12-07T12:49:35;21.03;;;14.87;;
10651;SDS011;5374;42.742;23.266;2022-12-07T12:56:01;22.67;;;15.80;;
10651;SDS011;5374;42.742;23.266;2022-12-07T12:59:24;24.00;;;14.87;;
10651;SDS011;5374;42.742;23.266;2022-12-07T13:02:16;19.10;;;12.47;;
10651;SDS011;5374;42.742;23.266;2022-12-07T13:05:16;20.20;;;12.90;;
10651;SDS011;5374;42.742;23.266;2022-12-07T13:08:11;19.67;;;12.87;;
10651;SDS011;5374;42.742;23.266;2022-12-07T13:11:17;26.07;;;16.50;;
10651;SDS011;5374;42.742;23.266;2022-12-07T13:20:50;34.07;;;16.93;;
10651;SDS011;5374;42.742;23.266;2022-12-07T13:23:47;27.57;;;15.50;;
10651;SDS011;5374;42.742;23.266;2022-12-07T13:26:42;31.17;;;17.67;;
10651;SDS011;5374;42.742;23.266;2022-12-07T13:29:30;26.50;;;16.23;;
10651;SDS011;5374;42.742;23.266;2022-12-07T13:32:24;22.87;;;15.87;;
10651;SDS011;5374;42.742;23.266;2022-12-07T13:35:31;30.00;;;16.40;;
10651;SDS011;5374;42.742;23.266;2022-12-07T13:38:23;25.87;;;17.20;;
10651;SDS011;5374;42.742;23.266;2022-12-07T13:41:14;23.20;;;15.63;;
10651;SDS011;5374;42.742;23.266;2022-12-07T13:44:07;21.23;;;13.90;;
10651;SDS011;5374;42.742;23.266;2022-12-07T13:47:03;23.77;;;15.77;;
10651;SDS011;5374;42.742;23.266;2022-12-07T13:49:56;25.97;;;16.53;;
10651;SDS011;5374;42.742;23.266;2022-12-07T13:52:44;32.53;;;19.10;;
10651;SDS011;5374;42.742;23.266;2022-12-07T13:55:31;27.93;;;17.73;;
10651;SDS011;5374;42.742;23.266;2022-12-07T13:58:19;25.13;;;15.47;;
10651;SDS011;5374;42.742;23.266;2022-12-07T14:01:09;21.97;;;14.20;;
10651;SDS011;5374;42.742;23.266;2022-12-07T14:07:21;28.57;;;18.03;;
10651;SDS011;5374;42.742;23.266;2022-12-07T14:10:22;23.90;;;16.30;;
10651;SDS011;5374;42.742;23.266;2022-12-07T14:13:22;28.37;;;19.70;;
10651;SDS011;5374;42.742;23.266;2022-12-07T14:16:33;27.50;;;17.00;;
10651;SDS011;5374;42.742;23.266;2022-12-07T14:22:29;34.90;;;17.37;;
10651;SDS011;5374;42.742;23.266;2022-12-07T14:25:20;30.67;;;17.77;;
10651;SDS011;5374;42.742;23.266;2022-12-07T14:28:09;32.60;;;20.90;;
10651;SDS011;5374;42.742;23.266;2022-12-07T14:31:13;35.57;;;22.30;;
10651;SDS011;5374;42.742;23.266;2022-12-07T14:34:03;33.67;;;22.40;;
10651;SDS011;5374;42.742;23.266;2022-12-07T14:36:52;34.80;;;21.50;;
10651;SDS011;5374;42.742;23.266;2022-12-07T14:39:39;42.43;;;27.27;;
10651;SDS011;5374;42.742;23.266;2022-12-07T14:42:27;53.10;;;28.33;;
10651;SDS011;5374;42.742;23.266;2022-12-07T14:45:17;61.33;;;33.30;;
10651;SDS011;5374;42.742;23.266;2022-12-07T14:48:08;58.60;;;32.00;;
10651;SDS011;5374;42.742;23.266;2022-12-07T14:51:00;52.97;;;29.77;;
10651;SDS011;5374;42.742;23.266;2022-12-07T14:53:48;48.40;;;28.30;;
10651;SDS011;5374;42.742;23.266;2022-12-07T14:56:38;63.73;;;38.27;;
10651;SDS011;5374;42.742;23.266;2022-12-07T14:59:25;96.17;;;50.93;;
10651;SDS011;5374;42.742;23.266;2022-12-07T15:02:13;82.27;;;44.60;;
10651;SDS011;5374;42.742;23.266;2022-12-07T15:05:01;105.03;;;58.83;;
10651;SDS011;5374;42.742;23.266;2022-12-07T15:07:50;97.13;;;52.77;;
10651;SDS011;5374;42.742;23.266;2022-12-07T15:10:38;102.83;;;49.63;;
10651;SDS011;5374;42.742;23.266;2022-12-07T15:13:25;102.43;;;49.03;;
10651;SDS011;5374;42.742;23.266;2022-12-07T15:16:29;93.60;;;46.70;;
10651;SDS011;5374;42.742;23.266;2022-12-07T15:19:19;79.63;;;40.60;;
10651;SDS011;5374;42.742;23.266;2022-12-07T15:22:10;108.20;;;49.57;;
10651;SDS011;5374;42.742;23.266;2022-12-07T15:24:59;104.27;;;52.10;;
10651;SDS011;5374;42.742;23.266;2022-12-07T15:27:47;106.43;;;50.57;;
10651;SDS011;5374;42.742;23.266;2022-12-07T15:30:34;105.60;;;51.77;;
10651;SDS011;5374;42.742;23.266;2022-12-07T15:33:23;105.97;;;49.17;;
10651;SDS011;5374;42.742;23.266;2022-12-07T15:36:19;90.87;;;44.57;;
10651;SDS011;5374;42.742;23.266;2022-12-07T15:39:08;85.73;;;42.80;;
10651;SDS011;5374;42.742;23.266;2022-12-07T15:41:57;68.20;;;40.67;;
10651;SDS011;5374;42.742;23.266;2022-12-07T15:44:44;83.20;;;49.33;;
10651;SDS011;5374;42.742;23.266;2022-12-07T15:47:50;118.23;;;66.73;;
10651;SDS011;5374;42.742;23.266;2022-12-07T15:50:37;92.00;;;58.20;;
10651;SDS011;5374;42.742;23.266;2022-12-07T15:53:24;83.80;;;48.77;;
10651;SDS011;5374;42.742;23.266;2022-12-07T15:56:11;64.10;;;39.60;;
10651;SDS011;5374;42.742;23.266;2022-12-07T15:59:00;59.93;;;35.93;;
10651;SDS011;5374;42.742;23.266;2022-12-07T16:01:47;63.60;;;34.00;;
10651;SDS011;5374;42.742;23.266;2022-12-07T16:04:34;76.53;;;41.43;;
10651;SDS011;5374;42.742;23.266;2022-12-07T16:07:21;97.97;;;47.10;;
10651;SDS011;5374;42.742;23.266;2022-12-07T16:10:09;101.93;;;53.53;;
10651;SDS011;5374;42.742;23.266;2022-12-07T16:12:56;85.67;;;44.87;;
10651;SDS011;5374;42.742;23.266;2022-12-07T16:15:45;73.33;;;41.90;;
10651;SDS011;5374;42.742;23.266;2022-12-07T16:18:32;113.77;;;53.13;;
10651;SDS011;5374;42.742;23.266;2022-12-07T16:21:19;196.23;;;92.90;;
10651;SDS011;5374;42.742;23.266;2022-12-07T16:24:07;167.63;;;94.17;;
10651;SDS011;5374;42.742;23.266;2022-12-07T16:26:55;156.07;;;85.33;;
10651;SDS011;5374;42.742;23.266;2022-12-07T16:29:43;115.60;;;68.23;;
10651;SDS011;5374;42.742;23.266;2022-12-07T16:32:32;127.43;;;71.93;;
10651;SDS011;5374;42.742;23.266;2022-12-07T16:35:19;94.27;;;55.93;;
10651;SDS011;5374;42.742;23.266;2022-12-07T16:38:06;79.27;;;45.73;;
10651;SDS011;5374;42.742;23.266;2022-12-07T16:40:53;73.90;;;45.27;;
10651;SDS011;5374;42.742;23.266;2022-12-07T16:43:40;54.40;;;37.40;;
10651;SDS011;5374;42.742;23.266;2022-12-07T16:46:27;71.73;;;41.67;;
10651;SDS011;5374;42.742;23.266;2022-12-07T16:49:16;88.73;;;49.47;;
10651;SDS011;5374;42.742;23.266;2022-12-07T16:52:09;75.53;;;44.13;;
10651;SDS011;5374;42.742;23.266;2022-12-07T16:54:56;59.50;;;36.87;;
10651;SDS011;5374;42.742;23.266;2022-12-07T16:57:43;78.23;;;46.37;;
10651;SDS011;5374;42.742;23.266;2022-12-07T17:00:30;73.47;;;39.57;;
10651;SDS011;5374;42.742;23.266;2022-12-07T17:03:21;60.57;;;34.47;;
10651;SDS011;5374;42.742;23.266;2022-12-07T17:06:14;43.10;;;29.33;;
10651;SDS011;5374;42.742;23.266;2022-12-07T17:09:03;45.63;;;29.90;;